KFFA

Details ICAO KFFA (FFA)
Name First Flight
Region United States
Timezone America/New_York (UTC-4.0)
Plans Departing 17
Arriving 46
Stats Elevation 13 ft / 4 m (AMSL)
Location 36.020044° -75.669806°
Runways 2
Magnetic Variation 11.042° W
Sunrise 2018-05-27 09:50:44 UTC / 2018-05-27 05:50:44 Local
Sunset 2018-05-28 00:11:52 UTC / 2018-05-27 20:11:52 Local
Advertisement - Login to hide

Runways

ID Width Length Bearing (true) Bearing (mag) Surface Threshold Offset Overrun Length
01R 20 ft / 6 m 867 ft / 264 m 8.00° 19.04° Asphalt 0 ft / 0 m 0 ft / 0 m
02 60 ft / 18 m 3,006 ft / 916 m 23.89° 34.93° Asphalt 0 ft / 0 m 0 ft / 0 m
19L 20 ft / 6 m 867 ft / 264 m 188.00° 199.04° Asphalt 0 ft / 0 m 0 ft / 0 m
20 60 ft / 18 m 3,006 ft / 916 m 203.89° 214.93° Asphalt 0 ft / 0 m 0 ft / 0 m

Map

Weather


0- 5 10 15 20 25 30 35+ Temperature / ° C

Clouds and Precipitation
Forecast for 2018-05-27 12:00 UTC. Updated 5 hours ago

Ground ~20,000 ft ~40,000 ft Winds

METAR

KFFA 271550Z AUTO 22004KT 10SM CLR 28/20 A3002 RMK AO2 T02830202

TAF

Not found

Frequencies

Unicom 122.90 MHz CTAF
Warning: Do not use this data for real-world aviation or navigation. No guarantee of current accuracy is given.